createdAt,value
2018-05-12T00:02:15.092Z,73.97
2018-05-12T00:04:42.635Z,73.63
2018-05-12T00:07:10.169Z,73.52
2018-05-12T00:09:37.695Z,73.28
2018-05-12T00:12:05.198Z,73.90
2018-05-12T00:14:32.716Z,73.59
2018-05-12T00:17:00.230Z,73.68
2018-05-12T00:19:27.765Z,73.58
2018-05-12T00:21:55.265Z,73.76
2018-05-12T00:24:22.850Z,74.08
2018-05-12T00:26:50.406Z,73.98
2018-05-12T00:29:17.951Z,74.38
2018-05-12T00:31:45.516Z,74.20
2018-05-12T00:34:13.017Z,73.83
2018-05-12T00:36:40.570Z,74.15
2018-05-12T00:39:08.091Z,74.08
2018-05-12T00:41:35.647Z,74.12
2018-05-12T00:44:03.157Z,73.85
2018-05-12T00:46:30.710Z,74.67
2018-05-12T00:48:58.204Z,75.08
2018-05-12T00:51:25.754Z,75.77
2018-05-12T00:53:53.271Z,76.09
2018-05-12T00:56:20.797Z,76.33
2018-05-12T00:58:48.318Z,77.57
2018-05-12T01:01:15.813Z,77.26
2018-05-12T01:03:43.384Z,77.28
2018-05-12T01:06:10.946Z,77.15
2018-05-12T01:08:38.529Z,77.37
2018-05-12T01:11:06.062Z,77.88
2018-05-12T01:13:33.627Z,78.17
2018-05-12T01:16:01.081Z,77.90
2018-05-12T01:18:29.362Z,78.16
2018-05-12T01:20:56.866Z,78.42
2018-05-12T01:23:24.373Z,78.31
2018-05-12T01:25:52.097Z,78.03
2018-05-12T01:28:19.649Z,77.91
2018-05-12T01:30:47.167Z,77.93
2018-05-12T01:33:14.699Z,78.15
2018-05-12T01:35:42.253Z,78.39
2018-05-12T01:38:09.828Z,78.78
2018-05-12T01:40:37.367Z,78.74
2018-05-12T01:43:04.927Z,78.80
2018-05-12T01:45:32.418Z,78.81
2018-05-12T01:47:59.957Z,78.47
2018-05-12T01:50:27.672Z,78.31
2018-05-12T01:52:55.245Z,78.14
2018-05-12T01:55:22.806Z,78.26
2018-05-12T01:57:50.386Z,78.54
2018-05-12T02:00:17.890Z,78.79
2018-05-12T02:02:45.427Z,78.82
2018-05-12T02:05:12.975Z,78.89
2018-05-12T02:07:40.536Z,78.94
2018-05-12T02:10:08.070Z,80.05
2018-05-12T02:12:35.615Z,82.41
2018-05-12T02:15:03.166Z,81.47
2018-05-12T02:17:30.679Z,81.89
2018-05-12T02:19:58.247Z,81.77
2018-05-12T02:22:25.771Z,81.59
2018-05-12T02:24:53.351Z,81.21
2018-05-12T02:27:20.933Z,80.18
2018-05-12T02:29:48.507Z,80.45
2018-05-12T02:32:16.046Z,80.77
2018-05-12T02:34:43.601Z,80.39
2018-05-12T02:37:11.148Z,80.29
2018-05-12T02:39:38.638Z,80.47
2018-05-12T02:42:06.170Z,80.93
2018-05-12T02:44:33.719Z,80.90
2018-05-12T02:47:01.307Z,80.68
2018-05-12T02:49:28.839Z,80.64
2018-05-12T02:51:56.365Z,80.47
2018-05-12T02:54:23.887Z,80.72
2018-05-12T02:56:51.438Z,81.28
2018-05-12T02:59:18.944Z,80.84
2018-05-12T03:01:46.498Z,80.66
2018-05-12T03:04:14.050Z,82.00
2018-05-12T03:06:41.619Z,82.13
2018-05-12T03:09:09.143Z,81.82
2018-05-12T03:11:36.687Z,81.96
2018-05-12T03:14:04.207Z,81.92
2018-05-12T03:16:31.688Z,82.47
2018-05-12T03:18:59.216Z,83.21
2018-05-12T03:21:26.782Z,83.89
2018-05-12T03:23:54.351Z,84.21
2018-05-12T03:26:21.855Z,84.46
2018-05-12T03:28:49.725Z,84.76
2018-05-12T03:31:17.247Z,83.98
2018-05-12T03:33:44.773Z,84.32
2018-05-12T03:36:12.292Z,84.49
2018-05-12T03:38:39.864Z,84.41
2018-05-12T03:41:07.376Z,84.22
2018-05-12T03:43:50.036Z,84.14
2018-05-12T03:46:17.593Z,83.50
2018-05-12T03:48:45.131Z,83.34
2018-05-12T03:51:12.654Z,83.59
2018-05-12T03:53:40.386Z,83.71
2018-05-12T03:56:07.961Z,83.68
2018-05-12T03:58:35.517Z,83.84
2018-05-12T04:01:03.060Z,84.13
2018-05-12T04:03:30.614Z,83.68
2018-05-12T04:06:09.927Z,82.99
2018-05-12T04:08:49.404Z,82.78
2018-05-12T04:11:28.746Z,82.40
2018-05-12T04:13:56.268Z,82.52
2018-05-12T04:16:24.658Z,82.52
2018-05-12T04:18:52.131Z,82.85
2018-05-12T04:21:19.685Z,82.82
2018-05-12T04:23:47.158Z,82.50
2018-05-12T04:26:14.694Z,82.51
2018-05-12T04:28:42.227Z,82.95
2018-05-12T04:31:09.781Z,82.75
2018-05-12T04:33:37.341Z,82.58
2018-05-12T04:36:04.889Z,82.69
2018-05-12T04:38:32.399Z,82.83
2018-05-12T04:40:59.917Z,83.36
2018-05-12T04:43:27.458Z,83.80
2018-05-12T04:45:54.996Z,83.79
2018-05-12T04:48:22.517Z,83.49
2018-05-12T04:50:50.098Z,83.40
2018-05-12T04:53:17.659Z,83.84
2018-05-12T04:55:45.175Z,83.49
2018-05-12T04:58:12.733Z,83.10
2018-05-12T05:00:40.249Z,82.92
2018-05-12T05:03:07.801Z,82.33
2018-05-12T05:05:35.302Z,82.13
2018-05-12T05:08:02.870Z,82.06
2018-05-12T05:10:30.408Z,81.82
2018-05-12T05:12:57.988Z,81.59
2018-05-12T05:15:25.519Z,80.81
2018-05-12T05:17:53.034Z,79.99
2018-05-12T05:20:20.552Z,79.72
2018-05-12T05:22:48.461Z,79.96
2018-05-12T05:25:16.021Z,79.83
2018-05-12T05:27:43.555Z,79.26
2018-05-12T05:30:11.107Z,78.85
2018-05-12T05:32:38.614Z,78.29
2018-05-12T05:35:06.168Z,77.49
2018-05-12T05:37:33.781Z,76.98
2018-05-12T05:40:01.370Z,76.24
2018-05-12T05:42:28.887Z,75.89
2018-05-12T05:44:56.407Z,75.07
2018-05-12T05:47:23.949Z,74.58
2018-05-12T05:49:51.450Z,73.43
2018-05-12T05:52:18.988Z,72.91
2018-05-12T05:54:46.498Z,71.92
2018-05-12T05:57:14.070Z,72.74
2018-05-12T05:59:41.588Z,72.77
2018-05-12T06:02:09.095Z,73.62
2018-05-12T06:04:36.585Z,73.16
2018-05-12T06:07:04.265Z,73.46
2018-05-12T06:09:31.903Z,73.93
2018-05-12T06:11:59.631Z,73.27
2018-05-12T06:14:30.939Z,72.97
2018-05-12T06:16:58.485Z,72.15
2018-05-12T06:19:26.324Z,72.91
2018-05-12T06:21:53.877Z,72.45
2018-05-12T06:24:21.399Z,71.80
2018-05-12T06:26:48.953Z,70.85
2018-05-12T06:29:16.512Z,70.68
2018-05-12T06:31:44.055Z,70.29
2018-05-12T06:34:11.578Z,71.01
2018-05-12T06:36:40.049Z,68.96
2018-05-12T06:39:08.585Z,68.13
2018-05-12T06:41:36.110Z,67.28
2018-05-12T06:44:03.666Z,65.86
2018-05-12T06:46:31.173Z,65.68
2018-05-12T06:48:58.693Z,65.65
2018-05-12T06:51:26.269Z,65.43
2018-05-12T06:53:53.859Z,65.33
2018-05-12T06:56:21.367Z,64.09
2018-05-12T06:58:48.922Z,63.69
2018-05-12T07:01:16.519Z,64.09
2018-05-12T07:03:44.060Z,62.77
2018-05-12T07:06:11.532Z,62.62
2018-05-12T07:08:39.116Z,61.43
2018-05-12T07:11:06.651Z,61.34
2018-05-12T07:13:34.233Z,62.33
2018-05-12T07:16:01.741Z,62.89
2018-05-12T07:18:29.339Z,62.04
2018-05-12T07:20:56.857Z,61.26
2018-05-12T07:23:24.418Z,61.08
2018-05-12T07:25:51.931Z,60.72
2018-05-12T07:28:19.491Z,60.03
2018-05-12T07:30:47.054Z,58.97
2018-05-12T07:33:14.647Z,59.21
2018-05-12T07:35:42.190Z,59.41
2018-05-12T07:38:09.713Z,57.15
2018-05-12T07:40:37.446Z,57.54
2018-05-12T07:43:04.938Z,56.52
2018-05-12T07:45:32.533Z,56.68
2018-05-12T07:47:59.992Z,57.03
2018-05-12T07:50:27.531Z,54.31
2018-05-12T07:52:54.993Z,56.38
2018-05-12T07:55:22.481Z,54.42
2018-05-12T07:57:50.188Z,53.54
2018-05-12T08:00:17.666Z,53.92
2018-05-12T08:02:45.218Z,53.81
2018-05-12T08:05:12.760Z,53.74
2018-05-12T08:07:40.274Z,53.98
2018-05-12T08:10:07.800Z,52.01
2018-05-12T08:12:35.482Z,50.58
2018-05-12T08:15:03.031Z,51.26
2018-05-12T08:17:30.513Z,52.34
2018-05-12T08:19:57.998Z,50.16
2018-05-12T08:22:25.461Z,50.26
2018-05-12T08:24:52.966Z,50.47
2018-05-12T08:27:20.452Z,46.56
2018-05-12T08:29:48.224Z,43.71
2018-05-12T08:32:15.928Z,42.00
2018-05-12T08:34:43.501Z,42.85
2018-05-12T08:37:10.989Z,42.64
2018-05-12T08:39:38.829Z,41.10
2018-05-12T08:42:06.415Z,42.29
2018-05-12T08:44:34.017Z,42.96
2018-05-12T08:47:01.519Z,43.85
2018-05-12T08:49:29.090Z,44.00
2018-05-12T08:51:56.646Z,43.15
2018-05-12T08:54:24.186Z,44.17
2018-05-12T08:56:51.705Z,39.75
2018-05-12T08:59:22.768Z,39.61
2018-05-12T09:01:51.538Z,41.94
2018-05-12T09:04:19.078Z,41.28
2018-05-12T09:06:46.635Z,42.96
2018-05-12T09:09:14.509Z,41.61
2018-05-12T09:11:42.054Z,41.48
2018-05-12T09:14:09.559Z,39.68
2018-05-12T09:16:37.146Z,40.64
2018-05-12T09:19:04.691Z,42.29
2018-05-12T09:21:32.210Z,39.66
2018-05-12T09:23:59.678Z,37.98
2018-05-12T09:26:27.515Z,39.23
2018-05-12T09:28:56.066Z,40.17
2018-05-12T09:31:23.581Z,38.70
2018-05-12T09:33:51.056Z,41.45
2018-05-12T09:36:18.548Z,42.53
2018-05-12T09:38:46.015Z,39.11
2018-05-12T09:41:13.524Z,40.06
2018-05-12T09:43:41.045Z,39.21
2018-05-12T09:46:08.757Z,38.59
2018-05-12T09:48:36.250Z,37.05
2018-05-12T09:51:04.192Z,37.75
2018-05-12T09:53:31.671Z,35.92
2018-05-12T09:55:59.162Z,37.93
2018-05-12T09:58:26.687Z,35.47
2018-05-12T10:00:54.218Z,37.66
2018-05-12T10:03:21.709Z,39.07
2018-05-12T10:05:49.293Z,37.36
2018-05-12T10:08:16.870Z,37.44
2018-05-12T10:10:44.464Z,39.53
2018-05-12T10:13:12.376Z,40.41
2018-05-12T10:15:39.881Z,40.12
2018-05-12T10:18:07.410Z,38.99
2018-05-12T10:20:34.941Z,39.92
2018-05-12T10:23:02.451Z,38.20
2018-05-12T10:25:30.174Z,36.38
2018-05-12T10:27:57.695Z,36.82
2018-05-12T10:30:25.210Z,37.70
2018-05-12T10:32:52.759Z,35.67
2018-05-12T10:35:20.304Z,35.69
2018-05-12T10:37:47.891Z,40.18
2018-05-12T10:40:15.458Z,36.93
2018-05-12T10:42:43.097Z,36.41
2018-05-12T10:47:45.382Z,36.29
2018-05-12T10:50:13.692Z,35.16
2018-05-12T10:52:41.239Z,36.33
2018-05-12T10:55:08.805Z,36.06
2018-05-12T10:57:36.458Z,34.15
2018-05-12T11:00:03.966Z,34.16
2018-05-12T11:02:31.493Z,35.11
2018-05-12T11:04:58.999Z,33.66
2018-05-12T11:07:26.547Z,33.56
2018-05-12T11:09:54.044Z,34.03
2018-05-12T11:12:21.659Z,34.85
2018-05-12T11:14:49.157Z,31.33
2018-05-12T11:17:16.769Z,35.54
2018-05-12T11:19:44.433Z,36.14
2018-05-12T11:22:11.991Z,36.18
2018-05-12T11:24:39.467Z,34.29
2018-05-12T11:27:07.013Z,34.00
2018-05-12T11:29:34.506Z,34.93
2018-05-12T11:32:02.002Z,34.46
2018-05-12T11:34:29.478Z,36.88
2018-05-12T11:36:56.975Z,36.63
2018-05-12T11:39:24.462Z,37.52
2018-05-12T11:41:51.964Z,34.91
2018-05-12T11:44:19.529Z,35.42
2018-05-12T11:47:00.711Z,35.11
2018-05-12T11:49:29.087Z,36.06
2018-05-12T11:51:56.654Z,35.53
2018-05-12T11:56:59.037Z,34.18
2018-05-12T11:59:27.090Z,32.84
2018-05-12T12:01:54.605Z,33.28
2018-05-12T12:04:22.110Z,34.83
2018-05-12T12:06:49.630Z,34.12
2018-05-12T12:09:17.203Z,34.45
2018-05-12T12:11:44.778Z,33.82
2018-05-12T12:14:12.272Z,32.10
2018-05-12T12:16:39.859Z,32.23
2018-05-12T12:19:07.354Z,32.10
2018-05-12T12:21:35.459Z,32.21
2018-05-12T12:24:02.955Z,33.50
2018-05-12T12:26:30.958Z,31.87
2018-05-12T12:28:58.497Z,33.36
2018-05-12T12:31:25.973Z,32.19
2018-05-12T12:33:53.481Z,34.59
2018-05-12T12:36:20.997Z,32.40
2018-05-12T12:38:48.618Z,31.87
2018-05-12T12:41:16.186Z,31.60
2018-05-12T12:43:43.810Z,32.19
2018-05-12T12:46:11.370Z,32.11
2018-05-12T12:48:38.874Z,31.33
2018-05-12T12:51:06.440Z,31.49
2018-05-12T12:53:33.978Z,30.38
2018-05-12T12:56:01.496Z,28.76
2018-05-12T12:58:29.084Z,32.32
2018-05-12T13:00:56.570Z,31.08
2018-05-12T13:03:24.917Z,31.64
2018-05-12T13:05:52.454Z,29.80
2018-05-12T13:08:20.074Z,29.30
2018-05-12T13:10:47.542Z,27.49
2018-05-12T13:13:15.093Z,27.72
2018-05-12T13:15:42.593Z,27.71
2018-05-12T13:18:10.165Z,27.21
2018-05-12T13:20:37.809Z,27.92
2018-05-12T13:23:05.376Z,27.14
2018-05-12T13:25:32.988Z,26.73
2018-05-12T13:28:00.549Z,28.48
2018-05-12T13:30:28.127Z,27.88
2018-05-12T13:32:55.689Z,25.81
2018-05-12T13:35:23.963Z,24.28
2018-05-12T13:37:51.455Z,25.20
2018-05-12T13:40:19.025Z,25.23
2018-05-12T13:42:46.568Z,23.95
2018-05-12T13:45:14.162Z,23.61
2018-05-12T13:47:41.737Z,26.54
2018-05-12T13:50:09.341Z,27.42
2018-05-12T13:52:36.832Z,27.26
2018-05-12T13:55:04.418Z,26.88
2018-05-12T13:57:32.123Z,24.93
2018-05-12T13:59:59.646Z,24.39
2018-05-12T14:02:27.199Z,24.67
2018-05-12T14:04:54.758Z,25.26
2018-05-12T14:07:22.317Z,25.63
2018-05-12T14:09:50.685Z,26.45
2018-05-12T14:12:18.268Z,26.36
2018-05-12T14:14:45.803Z,24.72
2018-05-12T14:17:14.353Z,26.45
2018-05-12T14:19:41.893Z,26.58
2018-05-12T14:22:09.451Z,28.39
2018-05-12T14:24:37.190Z,27.22
2018-05-12T14:27:04.709Z,25.49
2018-05-12T14:29:32.334Z,27.27
2018-05-12T14:31:59.867Z,26.97
2018-05-12T14:34:27.453Z,28.51
2018-05-12T14:36:54.963Z,29.03
2018-05-12T14:39:22.621Z,30.45
2018-05-12T14:41:50.098Z,29.63
2018-05-12T14:44:17.634Z,28.41
2018-05-12T14:46:45.209Z,29.08
2018-05-12T14:49:12.751Z,30.16
2018-05-12T14:51:40.259Z,30.26
2018-05-12T14:54:07.765Z,28.70
2018-05-12T14:56:35.283Z,28.46
2018-05-12T14:59:02.805Z,28.78
2018-05-12T15:01:30.282Z,28.87
2018-05-12T15:03:58.523Z,28.55
2018-05-12T15:06:26.043Z,27.63
2018-05-12T15:08:53.553Z,27.89
2018-05-12T15:11:21.104Z,30.19
2018-05-12T15:13:48.611Z,31.83
2018-05-12T15:16:16.143Z,31.12
2018-05-12T15:18:43.820Z,32.22
2018-05-12T15:21:11.395Z,32.95
2018-05-12T15:23:38.866Z,32.32
2018-05-12T15:26:06.388Z,32.47
2018-05-12T15:28:33.938Z,31.59
2018-05-12T15:31:01.489Z,30.68
2018-05-12T15:33:29.034Z,31.61
2018-05-12T15:35:56.606Z,31.42
2018-05-12T15:38:24.170Z,29.93
2018-05-12T15:40:51.677Z,29.08
2018-05-12T15:43:19.206Z,29.68
2018-05-12T15:45:46.783Z,28.66
2018-05-12T15:48:14.300Z,29.11
2018-05-12T15:50:41.856Z,28.23
2018-05-12T15:53:09.350Z,28.77
2018-05-12T15:55:36.921Z,28.79
2018-05-12T15:58:04.445Z,29.00
2018-05-12T16:00:31.981Z,29.82
2018-05-12T16:02:59.519Z,28.84
2018-05-12T16:05:26.982Z,29.17
2018-05-12T16:07:54.462Z,30.86
2018-05-12T16:10:22.198Z,30.64
2018-05-12T16:12:49.726Z,30.92
2018-05-12T16:15:17.243Z,31.73
2018-05-12T16:17:44.722Z,29.57
2018-05-12T16:20:12.260Z,29.40
2018-05-12T16:22:39.780Z,30.89
2018-05-12T16:25:07.803Z,32.45
2018-05-12T16:27:36.274Z,31.68
2018-05-12T16:30:03.807Z,31.30
2018-05-12T16:32:31.407Z,31.32
2018-05-12T16:34:58.968Z,31.14
2018-05-12T16:37:26.566Z,29.61
2018-05-12T16:39:54.051Z,29.44
2018-05-12T16:42:21.570Z,30.11
2018-05-12T16:44:49.066Z,30.29
2018-05-12T16:47:16.586Z,30.43
2018-05-12T16:49:44.075Z,32.44
2018-05-12T16:52:11.595Z,34.75
2018-05-12T16:54:39.086Z,34.71
2018-05-12T16:57:06.624Z,33.11
2018-05-12T16:59:34.205Z,31.20
2018-05-12T17:02:01.718Z,32.14
2018-05-12T17:04:29.256Z,31.95
2018-05-12T17:06:56.769Z,32.92
2018-05-12T17:09:24.229Z,37.61
2018-05-12T17:11:51.750Z,39.08
2018-05-12T17:14:19.246Z,41.23
2018-05-12T17:16:46.802Z,41.91
2018-05-12T17:19:14.314Z,44.08
2018-05-12T17:21:41.870Z,46.02
2018-05-12T17:24:09.366Z,45.15
2018-05-12T17:26:36.889Z,43.85
2018-05-12T17:29:04.372Z,43.59
2018-05-12T17:31:31.940Z,46.45
2018-05-12T17:33:59.458Z,46.51
2018-05-12T17:36:26.972Z,47.47
2018-05-12T17:38:54.447Z,48.11
2018-05-12T17:41:21.983Z,48.93
2018-05-12T17:43:49.568Z,50.40
2018-05-12T17:46:17.250Z,51.49
2018-05-12T17:48:45.478Z,51.84
2018-05-12T17:51:13.037Z,52.82
2018-05-12T17:53:40.519Z,51.25
2018-05-12T17:56:08.034Z,51.40
2018-05-12T17:58:35.591Z,50.40
2018-05-12T18:01:03.096Z,52.91
2018-05-12T18:03:30.631Z,52.87
2018-05-12T18:05:58.227Z,52.90
2018-05-12T18:08:25.845Z,53.28
2018-05-12T18:10:53.710Z,52.62
2018-05-12T18:13:21.302Z,53.02
2018-05-12T18:15:48.828Z,54.48
2018-05-12T18:18:16.587Z,54.89
2018-05-12T18:20:44.142Z,54.89
2018-05-12T18:23:11.660Z,55.20
2018-05-12T18:25:39.142Z,55.10
2018-05-12T18:28:06.737Z,55.77
2018-05-12T18:30:34.274Z,55.87
2018-05-12T18:33:01.761Z,56.20
2018-05-12T18:35:29.251Z,56.17
2018-05-12T18:37:56.744Z,55.81
2018-05-12T18:40:24.307Z,56.06
2018-05-12T18:42:51.946Z,56.39
2018-05-12T18:45:19.414Z,57.19
2018-05-12T18:47:46.899Z,57.51
2018-05-12T18:50:14.377Z,58.05
2018-05-12T18:52:41.914Z,57.98
2018-05-12T18:55:09.800Z,58.22
2018-05-12T18:57:37.318Z,58.32
2018-05-12T19:00:04.786Z,58.75
2018-05-12T19:02:32.266Z,59.07
2018-05-12T19:04:59.745Z,59.35
2018-05-12T19:07:27.293Z,59.78
2018-05-12T19:09:54.789Z,60.25
2018-05-12T19:12:22.281Z,60.65
2018-05-12T19:14:49.765Z,61.11
2018-05-12T19:17:18.238Z,61.23
2018-05-12T19:19:45.735Z,61.75
2018-05-12T19:22:13.224Z,61.57
2018-05-12T19:24:40.770Z,61.95
2018-05-12T19:27:08.225Z,61.64
2018-05-12T19:29:35.962Z,61.36
2018-05-12T19:32:03.793Z,61.96
2018-05-12T19:34:31.315Z,61.92
2018-05-12T19:36:58.794Z,62.03
2018-05-12T19:39:26.314Z,61.57
2018-05-12T19:41:53.781Z,61.45
2018-05-12T19:44:21.322Z,61.49
2018-05-12T19:46:48.910Z,61.01
2018-05-12T19:49:16.360Z,61.52
2018-05-12T19:51:43.840Z,61.36
2018-05-12T19:54:11.317Z,61.45
2018-05-12T19:56:38.785Z,61.49
2018-05-12T19:59:06.648Z,61.68
2018-05-12T20:01:34.134Z,61.68
2018-05-12T20:04:01.697Z,61.65
2018-05-12T20:06:29.221Z,61.26
2018-05-12T20:08:56.724Z,61.08
2018-05-12T20:11:24.189Z,61.56
2018-05-12T20:13:51.909Z,61.66
2018-05-12T20:16:19.391Z,62.48
2018-05-12T20:18:46.952Z,62.57
2018-05-12T20:21:14.534Z,62.35
2018-05-12T20:23:42.254Z,61.88
2018-05-12T20:26:09.807Z,60.82
2018-05-12T20:28:37.378Z,60.45
2018-05-12T20:31:04.884Z,59.37
2018-05-12T20:33:32.448Z,58.34
2018-05-12T20:35:59.913Z,58.61
2018-05-12T20:38:27.642Z,59.71
2018-05-12T20:40:55.122Z,59.72
2018-05-12T20:43:22.631Z,60.58
2018-05-12T20:45:50.106Z,61.26
2018-05-12T20:48:17.581Z,62.55
2018-05-12T20:50:45.099Z,63.18
2018-05-12T20:53:12.582Z,62.90
2018-05-12T20:55:40.114Z,64.24
2018-05-12T20:58:07.639Z,65.24
2018-05-12T21:00:35.130Z,65.14
2018-05-12T21:03:02.598Z,65.23
2018-05-12T21:05:32.093Z,65.66
2018-05-12T21:07:59.589Z,64.95
2018-05-12T21:10:27.078Z,64.55
2018-05-12T21:12:54.894Z,64.46
2018-05-12T21:15:22.399Z,64.56
2018-05-12T21:17:49.902Z,64.38
2018-05-12T21:20:17.385Z,64.07
2018-05-12T21:22:44.872Z,63.96
2018-05-12T21:25:12.413Z,64.01
2018-05-12T21:27:39.870Z,63.02
2018-05-12T21:30:07.586Z,63.83
2018-05-12T21:32:35.064Z,64.22
2018-05-12T21:35:02.566Z,64.18
2018-05-12T21:37:30.438Z,64.57
2018-05-12T21:39:57.939Z,64.68
2018-05-12T21:42:25.456Z,65.31
2018-05-12T21:44:52.961Z,65.86
2018-05-12T21:47:20.450Z,66.68
2018-05-12T21:49:47.964Z,67.58
2018-05-12T21:52:17.456Z,67.85
2018-05-12T21:54:44.975Z,67.99
2018-05-12T21:57:12.505Z,68.34
2018-05-12T21:59:40.008Z,68.28
2018-05-12T22:02:07.551Z,68.57
2018-05-12T22:04:35.018Z,68.78
2018-05-12T22:07:02.570Z,69.12
2018-05-12T22:09:30.261Z,69.14
2018-05-12T22:11:57.799Z,69.06
2018-05-12T22:14:25.277Z,68.95
2018-05-12T22:16:52.787Z,69.58
2018-05-12T22:19:20.283Z,68.55
2018-05-12T22:21:47.777Z,69.23
2018-05-12T22:24:15.267Z,69.49
2018-05-12T22:26:42.762Z,70.61
2018-05-12T22:29:10.230Z,70.37
2018-05-12T22:31:37.730Z,71.76
2018-05-12T22:34:05.212Z,72.70
2018-05-12T22:36:33.293Z,72.42
2018-05-12T22:39:00.806Z,72.42
2018-05-12T22:41:28.299Z,72.16
2018-05-12T22:43:55.832Z,72.09
2018-05-12T22:46:23.358Z,71.89
2018-05-12T22:48:50.873Z,71.80
2018-05-12T22:51:18.453Z,71.81
2018-05-12T22:53:46.011Z,71.83
2018-05-12T22:56:13.917Z,72.03
2018-05-12T22:58:41.473Z,73.12
2018-05-12T23:01:09.035Z,71.25
2018-05-12T23:03:36.542Z,72.13
2018-05-12T23:06:04.034Z,72.47
2018-05-12T23:08:31.558Z,72.08
2018-05-12T23:10:59.275Z,72.11
2018-05-12T23:13:26.792Z,71.99
2018-05-12T23:15:54.342Z,72.07
2018-05-12T23:18:21.894Z,71.88
2018-05-12T23:20:49.438Z,71.97
2018-05-12T23:23:16.958Z,71.47
2018-05-12T23:25:44.474Z,71.32
2018-05-12T23:28:11.967Z,71.44
2018-05-12T23:30:39.429Z,72.28
2018-05-12T23:33:06.988Z,72.35
2018-05-12T23:35:34.498Z,72.78
2018-05-12T23:38:02.031Z,72.49
2018-05-12T23:40:29.525Z,72.89
2018-05-12T23:42:57.036Z,72.96
2018-05-12T23:45:24.539Z,72.96
2018-05-12T23:47:52.066Z,72.59
2018-05-12T23:50:19.610Z,72.63
2018-05-12T23:52:47.134Z,72.56
2018-05-12T23:55:14.635Z,72.81
2018-05-12T23:57:42.145Z,72.73
